Time;durP1;ratioP1;P1;durP2;ratioP2;P2;SDS_P1;SDS_P2;PMS_P1;PMS_P2;Temp;Humidity;BMP_temperature;BMP_pressure;BME280_temperature;BME280_humidity;BME280_pressure;Samples;Min_cycle;Max_cycle;Signal;HPM_P1;HPM_P2
2023/08/23 00:01:06;;;;;;;80.23;73.23;;;;;;;17.30;100.00;101867.81;5089681;28;20472;-43
2023/08/23 00:03:49;;;;;;;82.80;77.40;;;;;;;17.29;100.00;101866.16;5088574;28;20457;-43
2023/08/23 00:06:18;;;;;;;91.83;84.97;;;;;;;17.28;100.00;101877.97;5088922;28;20857;-43
2023/08/23 00:08:46;;;;;;;92.80;85.73;;;;;;;17.25;100.00;101879.25;5088794;28;20449;-42
2023/08/23 00:11:14;;;;;;;91.90;84.60;;;;;;;17.28;100.00;101886.06;5089278;28;20500;-41
2023/08/23 00:13:43;;;;;;;91.17;85.07;;;;;;;17.32;100.00;101890.84;5088509;28;20529;-44
2023/08/23 00:16:10;;;;;;;83.83;78.53;;;;;;;17.39;100.00;101888.09;5088683;28;20421;-44
2023/08/23 00:18:38;;;;;;;86.17;79.97;;;;;;;17.45;100.00;101887.25;5088416;28;20453;-42
2023/08/23 00:21:06;;;;;;;85.47;79.10;;;;;;;17.47;100.00;101885.97;5088798;28;20790;-44
2023/08/23 00:23:35;;;;;;;81.20;76.50;;;;;;;17.49;100.00;101889.31;5088516;28;20464;-44
2023/08/23 00:26:03;;;;;;;91.07;85.47;;;;;;;17.48;100.00;101887.66;5079902;28;20437;-43
2023/08/23 00:28:31;;;;;;;84.73;79.70;;;;;;;17.46;100.00;101884.34;5087814;28;20453;-47
2023/08/23 00:30:58;;;;;;;94.43;88.23;;;;;;;17.45;100.00;101882.69;5088511;28;20872;-44
2023/08/23 00:33:26;;;;;;;93.33;87.43;;;;;;;17.44;100.00;101878.31;5088102;28;20514;-42
2023/08/23 00:35:54;;;;;;;86.20;80.80;;;;;;;17.41;100.00;101881.44;5088686;28;21063;-43
2023/08/23 00:38:22;;;;;;;85.67;80.80;;;;;;;17.38;100.00;101881.88;5088576;28;20448;-44
2023/08/23 00:40:51;;;;;;;85.53;80.17;;;;;;;17.36;100.00;101881.25;5088582;28;20442;-42
2023/08/23 00:43:19;;;;;;;94.47;88.60;;;;;;;17.30;100.00;101884.81;5088285;28;20421;-42
2023/08/23 00:45:47;;;;;;;93.73;87.43;;;;;;;17.28;100.00;101878.81;5088505;28;20437;-43
2023/08/23 00:48:14;;;;;;;91.80;86.57;;;;;;;17.25;100.00;101879.25;5088236;28;20604;-45
2023/08/23 00:50:43;;;;;;;97.13;90.30;;;;;;;17.24;100.00;101876.75;5088201;28;20469;-39
2023/08/23 00:53:12;;;;;;;96.93;90.93;;;;;;;17.19;100.00;101876.56;5088711;28;20433;-40
2023/08/23 00:55:40;;;;;;;97.33;91.27;;;;;;;17.16;100.00;101872.44;5087846;28;20484;-45
2023/08/23 00:58:10;;;;;;;98.40;92.10;;;;;;;17.14;100.00;101863.75;5088352;28;21004;-41
2023/08/23 01:00:41;;;;;;;97.70;90.93;;;;;;;17.12;100.00;101863.94;5088917;28;20811;-41
2023/08/23 01:03:08;;;;;;;95.97;89.97;;;;;;;17.11;100.00;101862.25;5088154;28;20421;-42
2023/08/23 01:05:45;;;;;;;85.00;80.30;;;;;;;17.12;100.00;101863.94;5088240;28;20457;-43
2023/08/23 01:08:19;;;;;;;93.57;88.07;;;;;;;17.10;100.00;101868.72;5088353;28;20452;-42
2023/08/23 01:10:52;;;;;;;90.63;84.93;;;;;;;17.09;100.00;101866.22;5088067;28;20520;-42
2023/08/23 01:13:29;;;;;;;98.67;92.53;;;;;;;17.10;100.00;101868.72;5087964;28;20500;-44
2023/08/23 01:15:59;;;;;;;90.60;85.87;;;;;;;17.09;100.00;101869.75;5088295;28;20861;-42
2023/08/23 01:18:28;;;;;;;87.50;82.60;;;;;;;17.07;100.00;101869.16;5088611;28;20441;-46
2023/08/23 01:20:57;;;;;;;88.00;83.77;;;;;;;17.07;100.00;101861.06;5088344;28;20429;-44
2023/08/23 01:23:27;;;;;;;94.50;89.30;;;;;;;17.07;100.00;101852.13;5087330;28;20429;-42
2023/08/23 01:25:55;;;;;;;92.13;87.00;;;;;;;17.05;100.00;101849.63;5080274;28;20471;-41
2023/08/23 01:28:22;;;;;;;90.80;85.70;;;;;;;17.05;100.00;101852.34;5088151;28;20532;-41
2023/08/23 01:30:51;;;;;;;87.57;82.67;;;;;;;17.07;100.00;101858.38;5088167;28;20434;-43
2023/08/23 01:33:26;;;;;;;89.93;84.43;;;;;;;17.08;100.00;101849.22;5087771;28;20998;-48
2023/08/23 01:35:59;;;;;;;88.20;83.60;;;;;;;17.12;100.00;101849.63;5088210;28;20958;-42
2023/08/23 01:38:30;;;;;;;88.93;83.87;;;;;;;17.14;100.00;101859.16;5089447;28;20456;-45
2023/08/23 01:40:58;;;;;;;88.07;83.17;;;;;;;17.17;100.00;101859.78;5092100;28;20461;-45
2023/08/23 01:43:26;;;;;;;88.40;83.40;;;;;;;17.17;100.00;101850.63;5091409;28;21142;-43
2023/08/23 01:45:54;;;;;;;94.80;89.10;;;;;;;17.21;100.00;101858.28;5091808;28;20952;-43
2023/08/23 01:48:22;;;;;;;87.47;82.47;;;;;;;17.25;100.00;101856.84;5091897;28;20497;-45
2023/08/23 01:50:51;;;;;;;84.63;80.23;;;;;;;17.28;100.00;101867.19;5092957;28;20948;-42
2023/08/23 01:53:19;;;;;;;78.83;74.63;;;;;;;17.32;100.00;101863.88;5091251;28;20478;-42
2023/08/23 01:55:48;;;;;;;83.00;78.23;;;;;;;17.36;100.00;101861.56;5091591;28;20437;-44
2023/08/23 01:58:17;;;;;;;82.73;78.27;;;;;;;17.41;100.00;101867.16;5091848;28;20804;-45
2023/08/23 02:00:47;;;;;;;83.40;78.50;;;;;;;17.42;100.00;101866.94;5091575;28;20486;-42
2023/08/23 02:03:15;;;;;;;83.50;78.90;;;;;;;17.44;100.00;101874.81;5090837;28;20429;-43
2023/08/23 02:05:43;;;;;;;90.07;85.10;;;;;;;17.45;100.00;101877.28;5091820;28;20944;-42
2023/08/23 02:08:10;;;;;;;81.53;76.90;;;;;;;17.47;100.00;101877.09;5091635;28;20565;-42
2023/08/23 02:10:38;;;;;;;92.47;87.27;;;;;;;17.48;100.00;101873.31;5091860;28;20429;-47
2023/08/23 02:13:07;;;;;;;86.47;81.60;;;;;;;17.49;100.00;101872.28;5091688;28;20473;-42
2023/08/23 02:15:35;;;;;;;79.03;74.40;;;;;;;17.54;100.00;101880.56;5090446;28;20469;-44
2023/08/23 02:18:02;;;;;;;78.00;73.73;;;;;;;17.53;100.00;101878.94;5091354;28;20512;-46
2023/08/23 02:20:31;;;;;;;80.07;75.37;;;;;;;17.55;100.00;101882.25;5091493;28;20433;-42
2023/08/23 02:22:58;;;;;;;83.37;79.00;;;;;;;17.57;100.00;101890.94;5090894;28;20432;-43
2023/08/23 02:25:26;;;;;;;76.17;71.87;;;;;;;17.56;100.00;101882.03;5082410;28;20456;-42
2023/08/23 02:27:54;;;;;;;80.47;75.87;;;;;;;17.58;100.00;101876.44;5091175;28;20796;-42
2023/08/23 02:30:23;;;;;;;85.23;80.17;;;;;;;17.58;100.00;101881.81;5091056;28;20478;-42
2023/08/23 02:32:50;;;;;;;78.33;74.03;;;;;;;17.58;100.00;101871.03;5090730;28;20551;-42
2023/08/23 02:35:18;;;;;;;78.97;75.03;;;;;;;17.57;100.00;101874.78;5090094;28;20457;-44
2023/08/23 02:37:46;;;;;;;79.53;75.03;;;;;;;17.57;100.00;101869.38;5090745;28;20813;-42
2023/08/23 02:40:14;;;;;;;80.40;76.10;;;;;;;17.55;100.00;101866.91;5090817;28;20433;-42
2023/08/23 02:42:41;;;;;;;84.27;78.50;;;;;;;17.55;100.00;101868.78;5090700;28;21012;-45
2023/08/23 02:45:09;;;;;;;73.17;69.47;;;;;;;17.56;100.00;101865.03;5090537;28;20492;-42
2023/08/23 02:47:38;;;;;;;68.37;64.67;;;;;;;17.57;100.00;101861.28;5090809;28;20877;-43
2023/08/23 02:50:07;;;;;;;65.60;62.40;;;;;;;17.57;100.00;101862.13;5089358;28;20585;-45
2023/08/23 02:52:35;;;;;;;68.77;64.90;;;;;;;17.57;100.00;101866.69;5090691;28;20472;-42
2023/08/23 02:55:02;;;;;;;68.43;64.83;;;;;;;17.58;100.00;101846.75;5090011;28;20461;-42
2023/08/23 02:57:30;;;;;;;67.83;63.93;;;;;;;17.58;100.00;101852.16;5090626;28;20469;-44
2023/08/23 02:59:58;;;;;;;64.80;61.23;;;;;;;17.56;100.00;101848.84;5090852;28;20494;-42
2023/08/23 03:02:26;;;;;;;71.27;67.57;;;;;;;17.57;100.00;101851.31;5090082;28;20468;-42
2023/08/23 03:04:56;;;;;;;70.40;66.87;;;;;;;17.55;100.00;101839.09;5089902;28;20994;-43
2023/08/23 03:07:23;;;;;;;74.10;70.10;;;;;;;17.53;100.00;101847.38;5090457;28;20502;-43
2023/08/23 03:09:51;;;;;;;69.73;66.03;;;;;;;17.52;100.00;101845.72;5090478;28;20425;-42
2023/08/23 03:12:19;;;;;;;72.67;68.97;;;;;;;17.50;100.00;101847.00;5091374;28;20483;-43
2023/08/23 03:14:46;;;;;;;74.13;70.30;;;;;;;17.48;100.00;101846.34;5089653;28;20908;-43
2023/08/23 03:17:14;;;;;;;73.00;69.50;;;;;;;17.45;100.00;101854.88;5089481;28;20543;-43
2023/08/23 03:19:41;;;;;;;76.37;72.33;;;;;;;17.43;100.00;101857.81;5090160;28;20431;-42
2023/08/23 03:22:10;;;;;;;76.37;72.90;;;;;;;17.43;100.00;101851.59;5089461;28;20444;-42
2023/08/23 03:24:38;;;;;;;73.60;69.80;;;;;;;17.40;100.00;101850.16;5090957;28;20587;-43
2023/08/23 03:27:06;;;;;;;76.60;73.10;;;;;;;17.37;100.00;101855.97;5090207;28;21009;-42
2023/08/23 03:29:33;;;;;;;77.53;74.03;;;;;;;17.34;100.00;101850.16;5090160;28;20468;-42
2023/08/23 03:32:01;;;;;;;83.70;79.70;;;;;;;17.29;100.00;101845.44;5089348;28;20484;-45
2023/08/23 03:34:29;;;;;;;90.13;85.83;;;;;;;17.27;100.00;101849.34;5089726;28;20757;-45
2023/08/23 03:36:56;;;;;;;88.53;84.50;;;;;;;17.25;100.00;101846.06;5090240;28;20429;-47
2023/08/23 03:39:25;;;;;;;87.70;83.50;;;;;;;17.20;100.00;101845.88;5089634;28;20812;-45
2023/08/23 03:41:53;;;;;;;89.47;84.90;;;;;;;17.18;100.00;101859.56;5089872;28;20474;-44
2023/08/23 03:44:21;;;;;;;89.80;85.90;;;;;;;17.13;100.00;101856.69;5089428;28;20533;-42
2023/08/23 03:46:48;;;;;;;95.97;91.13;;;;;;;17.09;100.00;101863.53;5091012;28;20460;-42
2023/08/23 03:49:16;;;;;;;93.97;89.53;;;;;;;17.05;100.00;101857.72;5089817;28;20520;-43
2023/08/23 03:51:44;;;;;;;98.93;94.73;;;;;;;17.01;100.00;101867.28;5089746;28;20432;-48
2023/08/23 03:54:11;;;;;;;96.53;92.27;;;;;;;16.98;100.00;101853.41;5089264;28;20493;-43
2023/08/23 03:56:41;;;;;;;99.07;94.50;;;;;;;16.94;100.00;101860.25;5091202;28;20432;-43
2023/08/23 03:59:09;;;;;;;98.67;93.43;;;;;;;16.90;100.00;101856.34;5089957;28;20471;-42
2023/08/23 04:01:36;;;;;;;104.07;98.93;;;;;;;16.85;100.00;101856.97;5088934;28;20673;-44
2023/08/23 04:04:04;;;;;;;100.70;96.10;;;;;;;16.81;100.00;101858.44;5089318;28;20458;-42
2023/08/23 04:06:32;;;;;;;100.60;96.10;;;;;;;16.79;100.00;101873.13;5089008;28;20430;-42
2023/08/23 04:09:00;;;;;;;105.73;100.53;;;;;;;16.75;100.00;101853.06;5089481;28;20456;-42
2023/08/23 04:11:28;;;;;;;97.70;93.57;;;;;;;16.75;100.00;101847.66;5089166;28;20457;-42
2023/08/23 04:13:57;;;;;;;94.47;90.17;;;;;;;16.73;100.00;101852.41;5089467;28;20461;-42
2023/08/23 04:16:25;;;;;;;105.37;100.60;;;;;;;16.71;100.00;101852.63;5089384;28;20434;-42
2023/08/23 04:18:54;;;;;;;101.47;96.97;;;;;;;16.71;100.00;101862.59;5089045;28;20454;-42
2023/08/23 04:21:22;;;;;;;99.37;95.27;;;;;;;16.69;100.00;101854.72;5089075;28;20533;-43
2023/08/23 04:23:50;;;;;;;99.80;94.97;;;;;;;16.70;100.00;101860.91;5088777;28;20454;-47
2023/08/23 04:26:18;;;;;;;97.77;93.47;;;;;;;16.70;100.00;101856.38;5080575;28;21190;-41
2023/08/23 04:28:47;;;;;;;99.80;95.60;;;;;;;16.69;100.00;101849.34;5089082;28;20452;-44
2023/08/23 04:31:16;;;;;;;105.87;101.27;;;;;;;16.69;100.00;101851.19;5089086;28;21170;-42
2023/08/23 04:33:46;;;;;;;100.50;95.70;;;;;;;16.67;100.00;101853.25;5088519;28;20468;-42
2023/08/23 04:36:14;;;;;;;101.93;97.13;;;;;;;16.67;100.00;101853.25;5089227;28;20682;-42
2023/08/23 04:38:42;;;;;;;97.63;93.17;;;;;;;16.68;100.00;101852.22;5089451;28;20452;-42
2023/08/23 04:41:09;;;;;;;100.20;95.57;;;;;;;16.69;100.00;101854.72;5088425;28;20447;-42
2023/08/23 04:43:37;;;;;;;98.10;93.40;;;;;;;16.73;100.00;101858.63;5087979;28;20473;-44
2023/08/23 04:46:05;;;;;;;98.07;93.67;;;;;;;16.81;100.00;101863.00;5090210;28;20521;-43
2023/08/23 04:48:34;;;;;;;92.97;89.07;;;;;;;16.89;100.00;101863.59;5088555;28;20449;-42
2023/08/23 04:51:03;;;;;;;88.33;84.23;;;;;;;16.96;100.00;101859.03;5088800;28;20546;-43
2023/08/23 04:53:32;;;;;;;87.50;82.90;;;;;;;17.04;100.00;101852.56;5087842;28;21047;-42
2023/08/23 04:56:00;;;;;;;86.70;82.87;;;;;;;17.13;100.00;101859.38;5088994;28;20452;-42
2023/08/23 04:58:30;;;;;;;82.93;79.10;;;;;;;17.25;100.00;101854.97;5088678;28;20981;-42
2023/08/23 05:01:01;;;;;;;73.13;69.97;;;;;;;17.59;100.00;101853.81;5088691;28;20505;-43
2023/08/23 05:03:30;;;;;;;68.67;65.67;;;;;;;18.24;100.00;101856.09;5088377;28;20421;-47
2023/08/23 05:06:00;;;;;;;56.60;53.70;;;;;;;18.71;100.00;101860.03;5089270;28;20428;-42
2023/08/23 05:08:29;;;;;;;43.37;41.07;;;;;;;19.73;100.00;101871.97;5089799;28;20455;-42
2023/08/23 05:10:57;;;;;;;33.10;31.57;;;;;;;20.73;100.00;101864.72;5089304;28;20437;-42
2023/08/23 05:13:25;;;;;;;30.40;28.50;;;;;;;21.71;100.00;101867.38;5088805;28;20494;-43
2023/08/23 05:15:53;;;;;;;31.20;29.63;;;;;;;22.49;100.00;101851.09;5092317;28;20935;-45
2023/08/23 05:18:21;;;;;;;28.50;27.17;;;;;;;23.17;100.00;101836.28;5092231;28;20502;-43
2023/08/23 05:20:53;;;;;;;28.90;27.40;;;;;;;23.89;100.00;101834.09;5091570;28;20493;-43
2023/08/23 05:23:23;;;;;;;31.37;29.70;;;;;;;24.51;100.00;101826.16;5091438;28;20451;-45
2023/08/23 05:25:52;;;;;;;26.70;25.20;;;;;;;25.19;100.00;101823.28;5083462;28;20524;-42
2023/08/23 05:28:19;;;;;;;28.53;26.80;;;;;;;25.69;100.00;101810.84;5091286;28;20528;-42
2023/08/23 05:30:48;;;;;;;22.27;21.27;;;;;;;26.21;100.00;101805.16;5092152;28;20440;-41
2023/08/23 05:33:15;;;;;;;21.00;19.90;;;;;;;26.74;100.00;101804.50;5090020;28;20506;-40
2023/08/23 05:35:44;;;;;;;20.43;19.30;;;;;;;27.22;100.00;101799.41;5091694;28;20433;-44
2023/08/23 05:38:11;;;;;;;18.67;17.77;;;;;;;27.71;100.00;101805.72;5092663;28;20443;-43
2023/08/23 05:40:41;;;;;;;21.63;20.50;;;;;;;28.01;100.00;101800.00;5091906;28;20432;-43
2023/08/23 05:43:09;;;;;;;18.97;17.97;;;;;;;28.29;100.00;101801.13;5091099;28;20515;-42
2023/08/23 05:45:36;;;;;;;15.67;14.67;;;;;;;28.17;100.00;101806.16;5091549;28;20455;-41
2023/08/23 05:48:05;;;;;;;14.03;13.17;;;;;;;28.54;100.00;101802.78;5091600;28;20502;-40
2023/08/23 05:50:33;;;;;;;10.10;9.50;;;;;;;29.02;100.00;101806.38;5091464;28;20966;-40
2023/08/23 05:53:00;;;;;;;10.80;10.13;;;;;;;29.16;94.04;101806.44;5091072;28;20440;-42
2023/08/23 05:55:28;;;;;;;11.27;10.37;;;;;;;29.40;92.19;101816.31;5091280;28;20246;-41
2023/08/23 05:57:57;;;;;;;9.20;8.60;;;;;;;29.42;87.67;101818.78;5091458;28;20247;-41
2023/08/23 06:00:25;;;;;;;11.77;10.73;;;;;;;29.78;90.18;101821.81;5091340;28;20214;-41
2023/08/23 06:02:52;;;;;;;9.40;8.80;;;;;;;30.08;80.06;101810.31;5091550;28;20191;-40
2023/08/23 06:05:20;;;;;;;9.13;8.50;;;;;;;30.35;75.38;101810.38;5091151;28;20215;-41
2023/08/23 06:07:48;;;;;;;8.47;7.97;;;;;;;30.47;81.88;101813.50;5091169;28;20219;-41
2023/08/23 06:10:16;;;;;;;7.83;7.40;;;;;;;30.76;78.20;101818.72;5091311;28;20281;-42
2023/08/23 06:12:44;;;;;;;8.50;7.80;;;;;;;30.92;78.62;101811.78;5090921;28;20483;-43
2023/08/23 06:15:13;;;;;;;8.40;7.77;;;;;;;31.27;75.68;101811.03;5090564;28;20250;-41
2023/08/23 06:17:41;;;;;;;8.03;7.27;;;;;;;31.20;67.07;101815.34;5091769;28;20207;-43
2023/08/23 06:20:10;;;;;;;9.48;8.50;;;;;;;31.42;69.58;101815.38;5091237;28;20260;-43
2023/08/23 06:22:37;;;;;;;6.70;6.20;;;;;;;31.49;67.84;101813.06;5090944;28;20219;-41
2023/08/23 06:25:06;;;;;;;8.10;7.60;;;;;;;31.78;69.01;101812.63;5082402;28;20296;-41
2023/08/23 06:27:34;;;;;;;8.20;7.50;;;;;;;32.04;65.67;101810.09;5091189;28;20239;-42
2023/08/23 06:30:03;;;;;;;7.03;6.53;;;;;;;32.02;64.19;101801.31;5091531;28;20190;-41
2023/08/23 06:32:32;;;;;;;6.55;6.00;;;;;;;32.25;65.04;101798.22;5091068;28;20191;-41
2023/08/23 06:35:00;;;;;;;9.15;8.30;;;;;;;32.47;59.56;101808.38;5090168;28;20417;-43
2023/08/23 06:37:28;;;;;;;5.93;5.63;;;;;;;32.53;62.34;101804.34;5090958;28;20306;-43
2023/08/23 06:39:56;;;;;;;6.63;6.15;;;;;;;32.63;58.68;101803.28;5091441;28;20205;-43
2023/08/23 06:42:24;;;;;;;6.40;5.85;;;;;;;32.69;60.12;101807.53;5090819;28;20195;-43
2023/08/23 06:44:52;;;;;;;6.30;5.82;;;;;;;32.64;58.33;101799.41;5090777;28;20215;-44
2023/08/23 06:47:22;;;;;;;6.05;5.65;;;;;;;32.76;57.82;101802.38;5090537;28;20242;-42
2023/08/23 06:49:51;;;;;;;6.22;5.70;;;;;;;32.92;58.97;101805.47;5090549;28;20195;-41
2023/08/23 06:52:19;;;;;;;5.78;5.10;;;;;;;32.33;57.15;101814.00;5090182;28;20214;-41
2023/08/23 06:54:46;;;;;;;5.38;4.75;;;;;;;32.37;58.41;101810.59;5090106;28;20680;-42
2023/08/23 06:57:14;;;;;;;4.93;4.65;;;;;;;32.42;58.68;101808.53;5090489;28;20210;-43
2023/08/23 06:59:42;;;;;;;4.90;4.60;;;;;;;32.15;56.01;101806.75;5090201;28;20278;-43
2023/08/23 07:02:10;;;;;;;8.05;4.70;;;;;;;32.31;53.36;101807.19;5089959;28;20297;-41
2023/08/23 07:04:37;;;;;;;5.57;4.70;;;;;;;32.24;54.34;101810.38;5089990;28;20593;-40
2023/08/23 07:07:06;;;;;;;5.13;4.28;;;;;;;32.21;57.59;101804.69;5090632;28;20218;-42
2023/08/23 07:09:34;;;;;;;5.25;4.75;;;;;;;32.10;54.77;101806.09;5090046;28;20218;-41
2023/08/23 07:12:02;;;;;;;6.53;4.43;;;;;;;31.97;57.80;101806.94;5089979;28;20199;-41
2023/08/23 07:14:29;;;;;;;5.15;4.65;;;;;;;31.67;53.62;101806.56;5089488;28;20257;-45
2023/08/23 07:16:57;;;;;;;4.75;4.40;;;;;;;31.65;56.13;101795.03;5089446;28;20198;-41
2023/08/23 07:19:25;;;;;;;7.88;4.80;;;;;;;31.55;56.87;101803.53;5090210;28;20241;-41
2023/08/23 07:21:52;;;;;;;5.88;4.20;;;;;;;31.08;53.36;101810.38;5089731;28;20215;-41
2023/08/23 07:24:21;;;;;;;3.95;3.75;;;;;;;31.46;55.24;101801.78;5085711;28;20211;-43
2023/08/23 07:26:49;;;;;;;4.00;3.80;;;;;;;30.70;56.80;101793.22;5085667;28;20271;-44
2023/08/23 07:29:16;;;;;;;4.20;3.88;;;;;;;30.63;59.32;101808.50;5089484;28;20720;-41
2023/08/23 07:31:44;;;;;;;4.03;3.65;;;;;;;30.63;58.57;101798.31;5089098;28;20201;-45
2023/08/23 07:34:12;;;;;;;4.83;4.17;;;;;;;30.46;58.21;101811.88;5089064;28;20223;-40
2023/08/23 07:36:40;;;;;;;4.97;3.80;;;;;;;29.98;58.46;101807.75;5088945;28;20562;-41
2023/08/23 07:39:08;;;;;;;4.67;4.20;;;;;;;29.19;60.73;101808.59;5089098;28;20652;-41
2023/08/23 07:41:37;;;;;;;5.70;4.47;;;;;;;29.07;63.45;101820.84;5089074;28;20824;-41
2023/08/23 07:44:05;;;;;;;4.10;3.90;;;;;;;28.81;64.86;101816.78;5088805;28;20249;-43
2023/08/23 07:46:32;;;;;;;4.30;3.87;;;;;;;28.92;63.78;101826.53;5089182;28;20230;-44
2023/08/23 07:49:00;;;;;;;3.77;3.50;;;;;;;28.86;65.66;101829.63;5089652;28;20587;-40
2023/08/23 07:51:28;;;;;;;3.83;3.50;;;;;;;28.33;65.90;101829.63;5089088;28;20281;-42
2023/08/23 07:53:56;;;;;;;4.53;4.10;;;;;;;27.99;69.03;101832.34;5088953;28;20518;-40
2023/08/23 07:56:23;;;;;;;4.13;3.83;;;;;;;27.90;72.10;101835.97;5089616;28;20882;-41
2023/08/23 07:58:53;;;;;;;4.70;4.07;;;;;;;27.56;73.48;101841.44;5089068;28;20539;-42
2023/08/23 08:01:20;;;;;;;3.90;3.70;;;;;;;27.40;73.24;101840.66;5088539;28;20436;-40
2023/08/23 08:03:48;;;;;;;4.50;4.20;;;;;;;27.24;76.64;101836.34;5088821;28;20457;-43
2023/08/23 08:06:16;;;;;;;4.47;4.13;;;;;;;27.11;79.59;101828.78;5089167;28;20462;-41
2023/08/23 08:08:44;;;;;;;4.30;3.90;;;;;;;27.29;79.74;101833.63;5088524;28;20539;-43
2023/08/23 08:11:12;;;;;;;4.17;3.97;;;;;;;27.82;78.88;101833.84;5089046;28;20433;-41
2023/08/23 08:13:40;;;;;;;5.27;4.00;;;;;;;27.98;75.49;101838.94;5087849;28;20524;-45
2023/08/23 08:16:10;;;;;;;3.93;3.50;;;;;;;28.16;70.94;101837.47;5088859;28;20823;-43
2023/08/23 08:18:38;;;;;;;3.93;3.50;;;;;;;28.13;71.36;101839.97;5088908;28;20847;-43
2023/08/23 08:21:06;;;;;;;5.20;4.03;;;;;;;27.96;70.90;101840.31;5088698;28;20435;-44
2023/08/23 08:23:34;;;;;;;3.93;3.60;;;;;;;27.85;73.02;101850.56;5088502;28;20514;-48
2023/08/23 08:26:02;;;;;;;4.40;4.10;;;;;;;27.62;74.00;101843.03;5088566;28;20836;-42
2023/08/23 08:28:29;;;;;;;3.60;3.40;;;;;;;27.88;74.75;101844.50;5088665;28;21008;-40
2023/08/23 08:30:57;;;;;;;4.50;3.83;;;;;;;28.40;71.43;101849.31;5088665;28;20429;-41
2023/08/23 08:33:26;;;;;;;3.97;3.70;;;;;;;28.38;68.43;101846.03;5087750;28;20440;-41
2023/08/23 08:35:54;;;;;;;3.63;3.40;;;;;;;28.64;68.58;101852.13;5088783;28;20507;-41
2023/08/23 08:38:22;;;;;;;4.50;3.60;;;;;;;28.78;68.05;101847.56;5088637;28;20502;-41
2023/08/23 08:40:50;;;;;;;3.70;3.50;;;;;;;28.46;65.95;101845.38;5088220;28;20429;-41
2023/08/23 08:43:18;;;;;;;3.80;3.57;;;;;;;28.31;67.13;101842.81;5087786;28;20522;-41
2023/08/23 08:45:46;;;;;;;4.10;3.80;;;;;;;28.56;65.40;101838.97;5088734;28;20433;-42
2023/08/23 08:48:15;;;;;;;4.57;3.20;;;;;;;28.94;64.93;101838.03;5088917;28;20226;-41
2023/08/23 08:50:45;;;;;;;5.00;3.70;;;;;;;28.89;63.78;101832.59;5093588;28;20429;-46
2023/08/23 08:53:16;;;;;;;3.57;3.37;;;;;;;28.56;62.24;101842.56;5091961;28;20440;-48
2023/08/23 08:55:46;;;;;;;4.00;3.60;;;;;;;28.40;63.22;101843.00;5092578;28;20563;-43
2023/08/23 08:58:19;;;;;;;3.60;3.40;;;;;;;28.24;64.85;101842.31;5092581;28;20533;-42
2023/08/23 09:00:49;;;;;;;3.83;3.57;;;;;;;28.28;66.14;101848.88;5092573;28;20992;-40
2023/08/23 09:03:18;;;;;;;3.47;3.27;;;;;;;28.23;66.64;101845.34;5093451;28;20433;-41
2023/08/23 09:05:48;;;;;;;4.43;4.13;;;;;;;27.94;66.91;101853.50;5092568;28;20818;-40
2023/08/23 09:08:16;;;;;;;4.57;3.23;;;;;;;27.74;67.61;101848.19;5092416;28;20445;-43
2023/08/23 09:10:44;;;;;;;3.77;3.50;;;;;;;27.29;68.87;101865.66;5092554;28;20421;-41
2023/08/23 09:13:12;;;;;;;4.13;3.80;;;;;;;26.82;70.73;101858.69;5092178;28;20437;-43
2023/08/23 09:15:40;;;;;;;4.60;3.70;;;;;;;26.46;73.45;101865.31;5071789;28;20470;-40
2023/08/23 09:18:08;;;;;;;4.43;3.63;;;;;;;26.29;77.00;101865.59;5071945;28;20445;-42
2023/08/23 09:20:36;;;;;;;4.20;3.87;;;;;;;26.04;82.61;101867.47;5072175;28;20426;-40
2023/08/23 09:23:05;;;;;;;4.23;3.93;;;;;;;25.66;84.00;101858.66;5072000;28;20422;-42
2023/08/23 09:25:33;;;;;;;3.83;3.30;;;;;;;25.37;87.45;101853.91;5090885;28;20453;-42
2023/08/23 09:28:00;;;;;;;6.37;3.67;;;;;;;25.29;91.15;101861.53;5092260;28;20491;-47
2023/08/23 09:30:28;;;;;;;4.70;4.10;;;;;;;25.19;95.79;101860.66;5092384;28;21032;-43
2023/08/23 09:32:58;;;;;;;5.03;4.63;;;;;;;25.13;97.45;101851.63;5091823;28;20459;-43
2023/08/23 09:35:26;;;;;;;4.83;3.77;;;;;;;25.21;98.72;101851.13;5091766;28;20846;-43
2023/08/23 09:37:54;;;;;;;3.90;3.70;;;;;;;25.44;99.05;101849.03;5092060;28;20526;-45
2023/08/23 09:40:25;;;;;;;5.60;3.80;;;;;;;25.59;99.40;101851.84;5092854;28;20871;-42
2023/08/23 09:42:53;;;;;;;4.60;4.30;;;;;;;25.74;99.97;101839.03;5091603;28;20957;-43
2023/08/23 09:45:25;;;;;;;4.13;3.83;;;;;;;25.83;99.07;101839.31;5091029;28;20457;-40
2023/08/23 09:47:54;;;;;;;4.90;4.50;;;;;;;26.14;96.77;101842.84;5098680;28;20460;-43
2023/08/23 09:50:24;;;;;;;5.60;5.07;;;;;;;26.85;91.43;101819.03;5100178;28;20421;-45
2023/08/23 09:52:53;;;;;;;5.00;4.50;;;;;;;26.85;92.05;101835.44;5100007;28;20490;-42
2023/08/23 09:55:24;;;;;;;4.07;3.80;;;;;;;27.36;88.19;101819.59;5099610;28;20471;-45
2023/08/23 09:57:53;;;;;;;4.10;3.90;;;;;;;27.47;86.43;101815.75;5100072;28;20495;-42
2023/08/23 10:00:22;;;;;;;4.10;3.73;;;;;;;27.53;85.33;101811.88;5100605;28;20421;-42
2023/08/23 10:02:50;;;;;;;4.20;3.90;;;;;;;27.16;83.99;101812.31;5098855;28;20429;-45
2023/08/23 10:05:19;;;;;;;6.17;4.00;;;;;;;26.93;84.63;101816.53;5099598;28;20888;-42
2023/08/23 10:07:47;;;;;;;5.80;3.80;;;;;;;26.30;86.36;101822.66;5099879;28;20879;-42
2023/08/23 10:10:15;;;;;;;4.43;3.87;;;;;;;26.10;89.18;101826.22;5099660;28;20772;-42
2023/08/23 10:12:48;;;;;;;6.40;3.93;;;;;;;25.76;93.61;101827.81;5099410;28;20511;-43
2023/08/23 10:15:19;;;;;;;3.57;3.27;;;;;;;25.24;97.81;101817.00;5099065;28;20476;-43
2023/08/23 10:17:49;;;;;;;3.90;3.60;;;;;;;25.07;98.72;101824.59;5098708;28;20469;-43
2023/08/23 10:20:17;;;;;;;4.23;3.67;;;;;;;25.06;99.95;101817.50;5092726;28;21033;-42
2023/08/23 10:22:45;;;;;;;4.63;4.23;;;;;;;25.22;100.00;101811.00;5090771;28;20482;-40
2023/08/23 10:25:17;;;;;;;6.53;4.33;;;;;;;25.35;100.00;101818.69;5090275;28;20541;-42
2023/08/23 10:27:48;;;;;;;3.70;3.40;;;;;;;25.76;97.87;101814.16;5091318;28;20481;-42
2023/08/23 10:30:22;;;;;;;3.60;3.40;;;;;;;26.15;92.69;101804.34;5091251;28;20521;-43
2023/08/23 10:32:50;;;;;;;3.90;3.57;;;;;;;26.48;92.15;101800.22;5090529;28;20456;-40
2023/08/23 10:35:28;;;;;;;3.47;3.20;;;;;;;26.94;88.34;101806.41;5090166;28;20460;-43
2023/08/23 10:37:57;;;;;;;3.13;2.90;;;;;;;27.30;81.04;101810.59;5090864;28;20511;-40
2023/08/23 10:40:28;;;;;;;4.40;3.93;;;;;;;27.56;75.67;101807.72;5090502;28;20491;-43
2023/08/23 10:42:57;;;;;;;3.60;3.33;;;;;;;27.37;75.24;101808.38;5089842;28;20425;-42
2023/08/23 10:45:25;;;;;;;3.20;2.93;;;;;;;27.47;76.69;101802.03;5090139;28;20469;-40
2023/08/23 10:47:53;;;;;;;6.50;3.40;;;;;;;27.43;76.18;101792.75;5089843;28;20453;-39
2023/08/23 10:50:21;;;;;;;5.40;3.43;;;;;;;27.45;78.32;101796.81;5090757;28;20433;-41
2023/08/23 10:52:49;;;;;;;3.97;3.67;;;;;;;27.71;79.40;101793.94;5090149;28;20429;-40
2023/08/23 10:55:17;;;;;;;3.60;3.27;;;;;;;27.43;81.33;101792.75;5089716;28;20796;-42
2023/08/23 10:57:45;;;;;;;3.27;3.00;;;;;;;27.25;79.52;101790.63;5090115;28;20564;-40
2023/08/23 11:00:16;;;;;;;3.50;3.20;;;;;;;27.00;81.04;101785.28;5090611;28;20522;-40
2023/08/23 11:02:44;;;;;;;3.33;3.13;;;;;;;26.41;83.58;101788.72;5089504;28;20502;-40
2023/08/23 11:05:11;;;;;;;3.03;2.93;;;;;;;26.24;85.66;101785.47;5089837;28;20461;-40
2023/08/23 11:07:39;;;;;;;3.40;3.10;;;;;;;25.85;89.42;101796.13;5090428;28;20830;-42
2023/08/23 11:10:09;;;;;;;5.47;3.67;;;;;;;25.51;92.16;101789.50;5090311;28;20435;-43
2023/08/23 11:12:38;;;;;;;4.37;4.13;;;;;;;25.39;94.53;101786.22;5089344;28;20433;-44
2023/08/23 11:15:06;;;;;;;5.63;4.17;;;;;;;25.29;95.19;101787.00;5090382;28;20452;-42
2023/08/23 11:17:35;;;;;;;4.27;3.70;;;;;;;25.24;97.72;101786.97;5089500;28;20556;-42